sensor_id;sensor_type;location;lat;lon;timestamp;temperature;humidity
8896;DHT22;4484;48.928;10.066;2023-11-21T00:00:02;6.10;99.90
8896;DHT22;4484;48.928;10.066;2023-11-21T00:02:38;6.10;99.90
8896;DHT22;4484;48.928;10.066;2023-11-21T00:05:09;6.10;99.90
8896;DHT22;4484;48.928;10.066;2023-11-21T00:07:37;6.10;99.90
8896;DHT22;4484;48.928;10.066;2023-11-21T00:10:04;6.10;99.90
8896;DHT22;4484;48.928;10.066;2023-11-21T00:12:32;6.00;99.90
8896;DHT22;4484;48.928;10.066;2023-11-21T00:15:00;6.10;99.90
8896;DHT22;4484;48.928;10.066;2023-11-21T00:17:28;6.10;99.90
8896;DHT22;4484;48.928;10.066;2023-11-21T00:19:55;6.00;99.90
8896;DHT22;4484;48.928;10.066;2023-11-21T00:22:22;6.00;99.90
8896;DHT22;4484;48.928;10.066;2023-11-21T00:24:49;6.00;99.90
8896;DHT22;4484;48.928;10.066;2023-11-21T00:27:16;6.00;99.90
8896;DHT22;4484;48.928;10.066;2023-11-21T00:29:43;6.00;99.90
8896;DHT22;4484;48.928;10.066;2023-11-21T00:32:11;6.00;99.90
8896;DHT22;4484;48.928;10.066;2023-11-21T00:34:38;6.00;99.90
8896;DHT22;4484;48.928;10.066;2023-11-21T00:37:05;6.00;99.90
8896;DHT22;4484;48.928;10.066;2023-11-21T00:39:32;6.00;99.90
8896;DHT22;4484;48.928;10.066;2023-11-21T00:41:59;6.00;99.90
8896;DHT22;4484;48.928;10.066;2023-11-21T00:44:26;6.00;99.90
8896;DHT22;4484;48.928;10.066;2023-11-21T00:46:53;5.90;99.90
8896;DHT22;4484;48.928;10.066;2023-11-21T00:49:21;6.00;99.90
8896;DHT22;4484;48.928;10.066;2023-11-21T00:51:48;5.90;99.90
8896;DHT22;4484;48.928;10.066;2023-11-21T00:54:16;6.00;99.90
8896;DHT22;4484;48.928;10.066;2023-11-21T00:56:43;6.00;99.90
8896;DHT22;4484;48.928;10.066;2023-11-21T00:59:10;6.00;99.90
8896;DHT22;4484;48.928;10.066;2023-11-21T01:01:40;6.00;99.90
8896;DHT22;4484;48.928;10.066;2023-11-21T01:04:07;5.90;99.90
8896;DHT22;4484;48.928;10.066;2023-11-21T01:06:34;6.00;99.90
8896;DHT22;4484;48.928;10.066;2023-11-21T01:09:01;5.90;99.90
8896;DHT22;4484;48.928;10.066;2023-11-21T01:11:30;6.00;99.90
8896;DHT22;4484;48.928;10.066;2023-11-21T01:13:57;6.00;99.90
8896;DHT22;4484;48.928;10.066;2023-11-21T01:16:26;6.00;99.90
8896;DHT22;4484;48.928;10.066;2023-11-21T01:18:56;6.00;99.90
8896;DHT22;4484;48.928;10.066;2023-11-21T01:21:22;6.00;99.90
8896;DHT22;4484;48.928;10.066;2023-11-21T01:23:49;6.00;99.90
8896;DHT22;4484;48.928;10.066;2023-11-21T01:26:17;6.00;99.90
8896;DHT22;4484;48.928;10.066;2023-11-21T01:28:44;6.00;99.90
8896;DHT22;4484;48.928;10.066;2023-11-21T01:31:11;6.00;99.90
8896;DHT22;4484;48.928;10.066;2023-11-21T01:33:38;6.00;99.90
8896;DHT22;4484;48.928;10.066;2023-11-21T01:36:07;6.00;99.90
8896;DHT22;4484;48.928;10.066;2023-11-21T01:38:34;6.00;99.90
8896;DHT22;4484;48.928;10.066;2023-11-21T01:41:01;6.00;99.90
8896;DHT22;4484;48.928;10.066;2023-11-21T01:43:29;5.90;99.90
8896;DHT22;4484;48.928;10.066;2023-11-21T01:45:59;6.00;99.90
8896;DHT22;4484;48.928;10.066;2023-11-21T01:48:27;5.90;99.90
8896;DHT22;4484;48.928;10.066;2023-11-21T01:50:54;5.90;99.90
8896;DHT22;4484;48.928;10.066;2023-11-21T01:53:23;5.90;99.90
8896;DHT22;4484;48.928;10.066;2023-11-21T01:55:51;5.90;99.90
8896;DHT22;4484;48.928;10.066;2023-11-21T01:58:20;5.90;99.90
8896;DHT22;4484;48.928;10.066;2023-11-21T02:00:48;5.90;99.90
8896;DHT22;4484;48.928;10.066;2023-11-21T02:03:17;5.90;99.90
8896;DHT22;4484;48.928;10.066;2023-11-21T02:05:44;6.00;99.90
8896;DHT22;4484;48.928;10.066;2023-11-21T02:08:11;5.90;99.90
8896;DHT22;4484;48.928;10.066;2023-11-21T02:10:38;5.90;99.90
8896;DHT22;4484;48.928;10.066;2023-11-21T02:13:05;5.90;99.90
8896;DHT22;4484;48.928;10.066;2023-11-21T02:15:32;6.00;99.90
8896;DHT22;4484;48.928;10.066;2023-11-21T02:18:00;6.00;99.90
8896;DHT22;4484;48.928;10.066;2023-11-21T02:20:27;6.00;99.90
8896;DHT22;4484;48.928;10.066;2023-11-21T02:22:57;5.90;99.90
8896;DHT22;4484;48.928;10.066;2023-11-21T02:25:29;6.00;99.90
8896;DHT22;4484;48.928;10.066;2023-11-21T02:27:59;6.00;99.90
8896;DHT22;4484;48.928;10.066;2023-11-21T02:30:27;6.00;99.90
8896;DHT22;4484;48.928;10.066;2023-11-21T02:33:00;6.00;99.90
8896;DHT22;4484;48.928;10.066;2023-11-21T02:35:28;6.00;99.90
8896;DHT22;4484;48.928;10.066;2023-11-21T02:37:55;6.00;99.90
8896;DHT22;4484;48.928;10.066;2023-11-21T02:40:24;6.00;99.90
8896;DHT22;4484;48.928;10.066;2023-11-21T02:42:54;6.00;99.90
8896;DHT22;4484;48.928;10.066;2023-11-21T02:45:21;6.00;99.90
8896;DHT22;4484;48.928;10.066;2023-11-21T02:47:50;6.00;99.90
8896;DHT22;4484;48.928;10.066;2023-11-21T02:50:17;6.00;99.90
8896;DHT22;4484;48.928;10.066;2023-11-21T02:52:46;6.00;99.90
8896;DHT22;4484;48.928;10.066;2023-11-21T02:55:13;6.10;99.90
8896;DHT22;4484;48.928;10.066;2023-11-21T02:57:40;6.10;99.90
8896;DHT22;4484;48.928;10.066;2023-11-21T03:00:08;6.10;99.90
8896;DHT22;4484;48.928;10.066;2023-11-21T03:02:36;6.10;99.90
8896;DHT22;4484;48.928;10.066;2023-11-21T03:05:07;6.10;99.90
8896;DHT22;4484;48.928;10.066;2023-11-21T03:07:39;6.10;99.90
8896;DHT22;4484;48.928;10.066;2023-11-21T03:10:08;6.20;99.90
8896;DHT22;4484;48.928;10.066;2023-11-21T03:12:39;6.20;99.90
8896;DHT22;4484;48.928;10.066;2023-11-21T03:15:07;6.20;99.90
8896;DHT22;4484;48.928;10.066;2023-11-21T03:17:34;6.20;99.90
8896;DHT22;4484;48.928;10.066;2023-11-21T03:20:02;6.20;99.90
8896;DHT22;4484;48.928;10.066;2023-11-21T03:22:30;6.20;99.90
8896;DHT22;4484;48.928;10.066;2023-11-21T03:24:58;6.20;99.90
8896;DHT22;4484;48.928;10.066;2023-11-21T03:27:26;6.20;99.90
8896;DHT22;4484;48.928;10.066;2023-11-21T03:29:53;6.20;99.90
8896;DHT22;4484;48.928;10.066;2023-11-21T03:32:21;6.20;99.90
8896;DHT22;4484;48.928;10.066;2023-11-21T03:34:56;6.20;99.90
8896;DHT22;4484;48.928;10.066;2023-11-21T03:37:25;6.20;99.90
8896;DHT22;4484;48.928;10.066;2023-11-21T03:39:58;6.20;99.90
8896;DHT22;4484;48.928;10.066;2023-11-21T03:42:25;6.20;99.90
8896;DHT22;4484;48.928;10.066;2023-11-21T03:44:55;6.20;99.90
8896;DHT22;4484;48.928;10.066;2023-11-21T03:47:22;6.20;99.90
8896;DHT22;4484;48.928;10.066;2023-11-21T03:49:49;6.20;99.90
8896;DHT22;4484;48.928;10.066;2023-11-21T03:52:16;6.20;99.90
8896;DHT22;4484;48.928;10.066;2023-11-21T03:54:43;6.20;99.90
8896;DHT22;4484;48.928;10.066;2023-11-21T03:57:11;6.20;99.90
8896;DHT22;4484;48.928;10.066;2023-11-21T03:59:42;6.10;99.90
8896;DHT22;4484;48.928;10.066;2023-11-21T04:02:10;6.20;99.90
8896;DHT22;4484;48.928;10.066;2023-11-21T04:04:37;6.20;99.90
8896;DHT22;4484;48.928;10.066;2023-11-21T04:07:04;6.10;99.90
8896;DHT22;4484;48.928;10.066;2023-11-21T04:09:32;6.20;99.90
8896;DHT22;4484;48.928;10.066;2023-11-21T04:11:59;6.20;99.90
8896;DHT22;4484;48.928;10.066;2023-11-21T04:14:26;6.20;99.90
8896;DHT22;4484;48.928;10.066;2023-11-21T04:16:53;6.20;99.90
8896;DHT22;4484;48.928;10.066;2023-11-21T04:19:21;6.20;99.90
8896;DHT22;4484;48.928;10.066;2023-11-21T04:21:48;6.10;99.90
8896;DHT22;4484;48.928;10.066;2023-11-21T04:24:15;6.20;99.90
8896;DHT22;4484;48.928;10.066;2023-11-21T04:26:44;6.20;99.90
8896;DHT22;4484;48.928;10.066;2023-11-21T04:29:11;6.20;99.90
8896;DHT22;4484;48.928;10.066;2023-11-21T04:31:38;6.20;99.90
8896;DHT22;4484;48.928;10.066;2023-11-21T04:34:05;6.20;99.90
8896;DHT22;4484;48.928;10.066;2023-11-21T04:36:32;6.20;99.90
8896;DHT22;4484;48.928;10.066;2023-11-21T04:38:59;6.20;99.90
8896;DHT22;4484;48.928;10.066;2023-11-21T04:41:26;6.20;99.90
8896;DHT22;4484;48.928;10.066;2023-11-21T04:43:53;6.20;99.90
8896;DHT22;4484;48.928;10.066;2023-11-21T04:46:20;6.20;99.90
8896;DHT22;4484;48.928;10.066;2023-11-21T04:48:48;6.20;99.90
8896;DHT22;4484;48.928;10.066;2023-11-21T04:51:15;6.20;99.90
8896;DHT22;4484;48.928;10.066;2023-11-21T04:53:42;6.20;99.90
8896;DHT22;4484;48.928;10.066;2023-11-21T04:56:09;6.20;99.90
8896;DHT22;4484;48.928;10.066;2023-11-21T04:58:36;6.20;99.90
8896;DHT22;4484;48.928;10.066;2023-11-21T05:01:03;6.20;99.90
8896;DHT22;4484;48.928;10.066;2023-11-21T05:03:34;6.10;99.90
8896;DHT22;4484;48.928;10.066;2023-11-21T05:06:01;6.20;99.90
8896;DHT22;4484;48.928;10.066;2023-11-21T05:08:29;6.20;99.90
8896;DHT22;4484;48.928;10.066;2023-11-21T05:10:56;6.20;99.90
8896;DHT22;4484;48.928;10.066;2023-11-21T05:13:23;6.20;99.90
8896;DHT22;4484;48.928;10.066;2023-11-21T05:15:55;6.20;99.90
8896;DHT22;4484;48.928;10.066;2023-11-21T05:18:25;6.20;99.90
8896;DHT22;4484;48.928;10.066;2023-11-21T05:20:54;6.20;99.90
8896;DHT22;4484;48.928;10.066;2023-11-21T05:23:21;6.20;99.90
8896;DHT22;4484;48.928;10.066;2023-11-21T05:25:48;6.20;99.90
8896;DHT22;4484;48.928;10.066;2023-11-21T05:28:15;6.10;99.90
8896;DHT22;4484;48.928;10.066;2023-11-21T05:30:42;6.10;99.90
8896;DHT22;4484;48.928;10.066;2023-11-21T05:33:09;6.10;99.90
8896;DHT22;4484;48.928;10.066;2023-11-21T05:35:36;6.20;99.90
8896;DHT22;4484;48.928;10.066;2023-11-21T05:38:03;6.20;99.90
8896;DHT22;4484;48.928;10.066;2023-11-21T05:40:32;6.20;99.90
8896;DHT22;4484;48.928;10.066;2023-11-21T05:42:59;6.20;99.90
8896;DHT22;4484;48.928;10.066;2023-11-21T05:45:26;6.20;99.90
8896;DHT22;4484;48.928;10.066;2023-11-21T05:47:53;6.20;99.90
8896;DHT22;4484;48.928;10.066;2023-11-21T05:50:20;6.10;99.90
8896;DHT22;4484;48.928;10.066;2023-11-21T05:52:47;6.20;99.90
8896;DHT22;4484;48.928;10.066;2023-11-21T05:55:15;6.10;99.90
8896;DHT22;4484;48.928;10.066;2023-11-21T05:57:43;6.10;99.90
8896;DHT22;4484;48.928;10.066;2023-11-21T06:00:12;6.20;99.90
8896;DHT22;4484;48.928;10.066;2023-11-21T06:02:52;6.20;99.90
8896;DHT22;4484;48.928;10.066;2023-11-21T06:05:24;6.10;99.90
8896;DHT22;4484;48.928;10.066;2023-11-21T06:07:55;6.20;99.90
8896;DHT22;4484;48.928;10.066;2023-11-21T06:10:26;6.10;99.90
8896;DHT22;4484;48.928;10.066;2023-11-21T06:12:55;6.10;99.90
8896;DHT22;4484;48.928;10.066;2023-11-21T06:15:22;6.10;99.90
8896;DHT22;4484;48.928;10.066;2023-11-21T06:17:51;6.00;99.90
8896;DHT22;4484;48.928;10.066;2023-11-21T06:20:21;6.10;99.90
8896;DHT22;4484;48.928;10.066;2023-11-21T06:22:50;6.00;99.90
8896;DHT22;4484;48.928;10.066;2023-11-21T06:25:17;6.00;99.90
8896;DHT22;4484;48.928;10.066;2023-11-21T06:27:46;6.00;99.90
8896;DHT22;4484;48.928;10.066;2023-11-21T06:30:17;6.10;99.90
8896;DHT22;4484;48.928;10.066;2023-11-21T06:32:47;6.00;99.90
8896;DHT22;4484;48.928;10.066;2023-11-21T06:35:15;6.00;99.90
8896;DHT22;4484;48.928;10.066;2023-11-21T06:37:44;6.00;99.90
8896;DHT22;4484;48.928;10.066;2023-11-21T06:40:16;6.00;99.90
8896;DHT22;4484;48.928;10.066;2023-11-21T06:42:45;6.00;99.90
8896;DHT22;4484;48.928;10.066;2023-11-21T06:45:14;6.00;99.90
8896;DHT22;4484;48.928;10.066;2023-11-21T06:47:41;6.00;99.90
8896;DHT22;4484;48.928;10.066;2023-11-21T06:50:09;6.00;99.90
8896;DHT22;4484;48.928;10.066;2023-11-21T06:52:36;6.00;99.90
8896;DHT22;4484;48.928;10.066;2023-11-21T06:55:03;6.10;99.90
8896;DHT22;4484;48.928;10.066;2023-11-21T06:57:31;6.10;99.90
8896;DHT22;4484;48.928;10.066;2023-11-21T06:59:59;6.10;99.90
8896;DHT22;4484;48.928;10.066;2023-11-21T07:02:26;6.10;99.90
8896;DHT22;4484;48.928;10.066;2023-11-21T07:04:53;6.10;99.90
8896;DHT22;4484;48.928;10.066;2023-11-21T07:07:20;6.10;99.90
8896;DHT22;4484;48.928;10.066;2023-11-21T07:09:47;6.10;99.90
8896;DHT22;4484;48.928;10.066;2023-11-21T07:12:15;6.10;99.90
8896;DHT22;4484;48.928;10.066;2023-11-21T07:14:42;6.10;99.90
8896;DHT22;4484;48.928;10.066;2023-11-21T07:17:12;6.10;99.90
8896;DHT22;4484;48.928;10.066;2023-11-21T07:19:39;6.20;99.90
8896;DHT22;4484;48.928;10.066;2023-11-21T07:22:06;6.10;99.90
8896;DHT22;4484;48.928;10.066;2023-11-21T07:24:33;6.20;99.90
8896;DHT22;4484;48.928;10.066;2023-11-21T07:27:00;6.20;99.90
8896;DHT22;4484;48.928;10.066;2023-11-21T07:29:27;6.20;99.90
8896;DHT22;4484;48.928;10.066;2023-11-21T07:31:56;6.20;99.90
8896;DHT22;4484;48.928;10.066;2023-11-21T07:34:23;6.20;99.90
8896;DHT22;4484;48.928;10.066;2023-11-21T07:36:50;6.20;99.90
8896;DHT22;4484;48.928;10.066;2023-11-21T07:39:17;6.30;99.90
8896;DHT22;4484;48.928;10.066;2023-11-21T07:41:44;6.30;99.90
8896;DHT22;4484;48.928;10.066;2023-11-21T07:44:18;6.30;99.90
8896;DHT22;4484;48.928;10.066;2023-11-21T07:46:46;6.30;99.90
8896;DHT22;4484;48.928;10.066;2023-11-21T07:49:13;6.30;99.90
8896;DHT22;4484;48.928;10.066;2023-11-21T07:51:43;6.40;99.90
8896;DHT22;4484;48.928;10.066;2023-11-21T07:54:11;6.40;99.90
8896;DHT22;4484;48.928;10.066;2023-11-21T07:56:38;6.40;99.90
8896;DHT22;4484;48.928;10.066;2023-11-21T07:59:05;6.40;99.90
8896;DHT22;4484;48.928;10.066;2023-11-21T08:01:31;6.40;99.90
8896;DHT22;4484;48.928;10.066;2023-11-21T08:03:59;6.40;99.90
8896;DHT22;4484;48.928;10.066;2023-11-21T08:06:31;6.40;99.90
8896;DHT22;4484;48.928;10.066;2023-11-21T08:08:58;6.40;99.90
8896;DHT22;4484;48.928;10.066;2023-11-21T08:11:25;6.40;99.90
8896;DHT22;4484;48.928;10.066;2023-11-21T08:13:53;6.40;99.90
8896;DHT22;4484;48.928;10.066;2023-11-21T08:16:21;6.40;99.90
8896;DHT22;4484;48.928;10.066;2023-11-21T08:18:48;6.50;99.90
8896;DHT22;4484;48.928;10.066;2023-11-21T08:21:15;6.50;99.90
8896;DHT22;4484;48.928;10.066;2023-11-21T08:23:41;6.60;99.90
8896;DHT22;4484;48.928;10.066;2023-11-21T08:26:08;6.60;99.90
8896;DHT22;4484;48.928;10.066;2023-11-21T08:28:35;6.60;99.90
8896;DHT22;4484;48.928;10.066;2023-11-21T08:31:02;6.70;99.90
8896;DHT22;4484;48.928;10.066;2023-11-21T08:33:31;6.70;99.90
8896;DHT22;4484;48.928;10.066;2023-11-21T08:35:58;6.80;99.90
8896;DHT22;4484;48.928;10.066;2023-11-21T08:38:24;7.00;99.90
8896;DHT22;4484;48.928;10.066;2023-11-21T08:40:51;7.10;99.90
8896;DHT22;4484;48.928;10.066;2023-11-21T08:43:18;7.10;99.90
8896;DHT22;4484;48.928;10.066;2023-11-21T08:45:46;7.20;99.90
8896;DHT22;4484;48.928;10.066;2023-11-21T08:48:13;7.10;99.90
8896;DHT22;4484;48.928;10.066;2023-11-21T08:50:40;7.10;99.90
8896;DHT22;4484;48.928;10.066;2023-11-21T08:53:07;7.10;99.90
8896;DHT22;4484;48.928;10.066;2023-11-21T08:55:34;7.10;99.90
8896;DHT22;4484;48.928;10.066;2023-11-21T08:58:04;7.10;99.90
8896;DHT22;4484;48.928;10.066;2023-11-21T09:00:32;7.10;99.90
8896;DHT22;4484;48.928;10.066;2023-11-21T09:03:01;7.10;99.90
8896;DHT22;4484;48.928;10.066;2023-11-21T09:05:28;7.10;99.90
8896;DHT22;4484;48.928;10.066;2023-11-21T09:07:55;7.10;99.90
8896;DHT22;4484;48.928;10.066;2023-11-21T09:10:22;7.20;99.90
8896;DHT22;4484;48.928;10.066;2023-11-21T09:12:50;7.30;99.90
8896;DHT22;4484;48.928;10.066;2023-11-21T09:15:18;7.30;99.90
8896;DHT22;4484;48.928;10.066;2023-11-21T09:17:47;7.40;99.90
8896;DHT22;4484;48.928;10.066;2023-11-21T09:20:15;7.50;99.90
8896;DHT22;4484;48.928;10.066;2023-11-21T09:22:42;7.60;99.90
8896;DHT22;4484;48.928;10.066;2023-11-21T09:25:11;7.80;99.90
8896;DHT22;4484;48.928;10.066;2023-11-21T09:27:39;7.90;99.90
8896;DHT22;4484;48.928;10.066;2023-11-21T09:30:07;8.00;99.90
8896;DHT22;4484;48.928;10.066;2023-11-21T09:32:40;8.10;99.90
8896;DHT22;4484;48.928;10.066;2023-11-21T09:35:08;8.20;99.90
8896;DHT22;4484;48.928;10.066;2023-11-21T09:37:35;8.30;99.90
8896;DHT22;4484;48.928;10.066;2023-11-21T09:40:03;8.40;99.90
8896;DHT22;4484;48.928;10.066;2023-11-21T09:42:39;8.40;99.90
8896;DHT22;4484;48.928;10.066;2023-11-21T09:47:45;8.50;99.90
8896;DHT22;4484;48.928;10.066;2023-11-21T09:50:17;8.50;99.90
8896;DHT22;4484;48.928;10.066;2023-11-21T09:52:58;8.50;99.90
8896;DHT22;4484;48.928;10.066;2023-11-21T09:55:28;8.50;99.90
8896;DHT22;4484;48.928;10.066;2023-11-21T09:57:56;8.40;99.90
8896;DHT22;4484;48.928;10.066;2023-11-21T10:00:24;8.50;99.90
8896;DHT22;4484;48.928;10.066;2023-11-21T10:02:51;8.40;99.90
8896;DHT22;4484;48.928;10.066;2023-11-21T10:05:20;8.40;99.90
8896;DHT22;4484;48.928;10.066;2023-11-21T10:07:52;8.40;99.90
8896;DHT22;4484;48.928;10.066;2023-11-21T10:10:20;8.40;99.90
8896;DHT22;4484;48.928;10.066;2023-11-21T10:12:57;8.30;99.90
8896;DHT22;4484;48.928;10.066;2023-11-21T10:15:24;8.30;99.90
8896;DHT22;4484;48.928;10.066;2023-11-21T10:17:56;8.30;99.90
8896;DHT22;4484;48.928;10.066;2023-11-21T10:20:23;8.30;99.90
8896;DHT22;4484;48.928;10.066;2023-11-21T10:22:51;8.30;99.90
8896;DHT22;4484;48.928;10.066;2023-11-21T10:25:18;8.20;99.90
8896;DHT22;4484;48.928;10.066;2023-11-21T10:27:48;8.30;99.90
8896;DHT22;4484;48.928;10.066;2023-11-21T10:30:18;8.40;99.90
8896;DHT22;4484;48.928;10.066;2023-11-21T10:32:45;8.50;99.90
8896;DHT22;4484;48.928;10.066;2023-11-21T10:35:13;8.60;99.90
8896;DHT22;4484;48.928;10.066;2023-11-21T10:37:40;8.70;99.90
8896;DHT22;4484;48.928;10.066;2023-11-21T10:40:08;8.70;99.90
8896;DHT22;4484;48.928;10.066;2023-11-21T10:42:39;8.80;99.90
8896;DHT22;4484;48.928;10.066;2023-11-21T10:45:10;8.70;99.90
8896;DHT22;4484;48.928;10.066;2023-11-21T10:47:41;8.80;99.90
8896;DHT22;4484;48.928;10.066;2023-11-21T10:50:08;8.80;99.90
8896;DHT22;4484;48.928;10.066;2023-11-21T10:52:42;8.80;99.90
8896;DHT22;4484;48.928;10.066;2023-11-21T10:55:17;8.70;99.90
8896;DHT22;4484;48.928;10.066;2023-11-21T10:57:48;8.80;99.90
8896;DHT22;4484;48.928;10.066;2023-11-21T11:00:16;8.80;99.90
8896;DHT22;4484;48.928;10.066;2023-11-21T11:02:51;8.80;99.90
8896;DHT22;4484;48.928;10.066;2023-11-21T11:05:20;8.70;99.90
8896;DHT22;4484;48.928;10.066;2023-11-21T11:07:50;8.70;99.90
8896;DHT22;4484;48.928;10.066;2023-11-21T11:10:21;8.60;99.90
8896;DHT22;4484;48.928;10.066;2023-11-21T11:12:49;8.50;99.90
8896;DHT22;4484;48.928;10.066;2023-11-21T11:15:19;8.50;99.90
8896;DHT22;4484;48.928;10.066;2023-11-21T11:17:46;8.40;99.90
8896;DHT22;4484;48.928;10.066;2023-11-21T11:20:16;8.50;99.90
8896;DHT22;4484;48.928;10.066;2023-11-21T11:22:46;8.50;99.90
8896;DHT22;4484;48.928;10.066;2023-11-21T11:31:31;8.90;99.90
8896;DHT22;4484;48.928;10.066;2023-11-21T11:34:29;9.10;99.90
8896;DHT22;4484;48.928;10.066;2023-11-21T11:37:06;9.20;99.90
8896;DHT22;4484;48.928;10.066;2023-11-21T11:42:17;9.50;99.90
8896;DHT22;4484;48.928;10.066;2023-11-21T11:47:31;9.50;99.90
8896;DHT22;4484;48.928;10.066;2023-11-21T11:50:05;9.50;99.90
8896;DHT22;4484;48.928;10.066;2023-11-21T11:52:48;9.50;99.90
8896;DHT22;4484;48.928;10.066;2023-11-21T11:55:17;9.50;99.90
8896;DHT22;4484;48.928;10.066;2023-11-21T11:57:47;9.40;99.90
8896;DHT22;4484;48.928;10.066;2023-11-21T12:02:56;9.40;99.90
8896;DHT22;4484;48.928;10.066;2023-11-21T12:05:24;9.40;99.90
8896;DHT22;4484;48.928;10.066;2023-11-21T12:07:55;9.70;99.90
8896;DHT22;4484;48.928;10.066;2023-11-21T12:10:26;10.20;99.90
8896;DHT22;4484;48.928;10.066;2023-11-21T12:12:55;10.90;99.90
8896;DHT22;4484;48.928;10.066;2023-11-21T12:15:23;11.60;99.90
8896;DHT22;4484;48.928;10.066;2023-11-21T12:17:52;12.30;99.90
8896;DHT22;4484;48.928;10.066;2023-11-21T12:20:24;12.70;99.90
8896;DHT22;4484;48.928;10.066;2023-11-21T12:22:55;13.00;99.90
8896;DHT22;4484;48.928;10.066;2023-11-21T12:25:24;13.30;99.90
8896;DHT22;4484;48.928;10.066;2023-11-21T12:27:54;13.40;99.90
8896;DHT22;4484;48.928;10.066;2023-11-21T12:30:23;13.40;99.90
8896;DHT22;4484;48.928;10.066;2023-11-21T12:32:52;13.30;99.90
8896;DHT22;4484;48.928;10.066;2023-11-21T12:35:20;13.20;99.90
8896;DHT22;4484;48.928;10.066;2023-11-21T12:37:48;13.00;99.90
8896;DHT22;4484;48.928;10.066;2023-11-21T12:40:16;12.70;99.90
8896;DHT22;4484;48.928;10.066;2023-11-21T12:42:49;12.40;99.90
8896;DHT22;4484;48.928;10.066;2023-11-21T12:47:44;11.60;99.90
8896;DHT22;4484;48.928;10.066;2023-11-21T12:50:11;11.30;99.90
8896;DHT22;4484;48.928;10.066;2023-11-21T12:52:45;11.00;99.90
8896;DHT22;4484;48.928;10.066;2023-11-21T12:55:22;10.80;99.90
8896;DHT22;4484;48.928;10.066;2023-11-21T12:57:54;10.60;99.90
8896;DHT22;4484;48.928;10.066;2023-11-21T13:00:45;10.50;99.90
8896;DHT22;4484;48.928;10.066;2023-11-21T13:03:15;10.30;99.90
8896;DHT22;4484;48.928;10.066;2023-11-21T13:05:47;10.20;99.90
8896;DHT22;4484;48.928;10.066;2023-11-21T13:08:20;10.00;99.90
8896;DHT22;4484;48.928;10.066;2023-11-21T13:10:51;9.90;99.90
8896;DHT22;4484;48.928;10.066;2023-11-21T13:13:18;9.80;99.90
8896;DHT22;4484;48.928;10.066;2023-11-21T13:15:54;9.80;99.90
8896;DHT22;4484;48.928;10.066;2023-11-21T13:18:24;9.70;99.90
8896;DHT22;4484;48.928;10.066;2023-11-21T13:20:54;9.60;99.90
8896;DHT22;4484;48.928;10.066;2023-11-21T13:23:22;9.50;99.90
8896;DHT22;4484;48.928;10.066;2023-11-21T13:25:50;9.50;99.90
8896;DHT22;4484;48.928;10.066;2023-11-21T13:28:28;9.40;99.90
8896;DHT22;4484;48.928;10.066;2023-11-21T13:31:00;9.40;99.90
8896;DHT22;4484;48.928;10.066;2023-11-21T13:33:36;9.30;99.90
8896;DHT22;4484;48.928;10.066;2023-11-21T13:36:09;9.30;99.90
8896;DHT22;4484;48.928;10.066;2023-11-21T13:38:38;9.20;99.90
8896;DHT22;4484;48.928;10.066;2023-11-21T13:41:09;9.20;99.90
8896;DHT22;4484;48.928;10.066;2023-11-21T13:43:39;9.10;99.90
8896;DHT22;4484;48.928;10.066;2023-11-21T13:46:05;9.10;99.90
8896;DHT22;4484;48.928;10.066;2023-11-21T13:48:40;9.00;99.90
8896;DHT22;4484;48.928;10.066;2023-11-21T13:51:09;9.00;99.90
8896;DHT22;4484;48.928;10.066;2023-11-21T13:53:47;8.90;99.90
8896;DHT22;4484;48.928;10.066;2023-11-21T13:56:17;8.90;99.90
8896;DHT22;4484;48.928;10.066;2023-11-21T13:58:49;8.90;99.90
8896;DHT22;4484;48.928;10.066;2023-11-21T14:01:19;8.90;99.90
8896;DHT22;4484;48.928;10.066;2023-11-21T14:04:00;8.80;99.90
8896;DHT22;4484;48.928;10.066;2023-11-21T14:06:44;8.90;99.90
8896;DHT22;4484;48.928;10.066;2023-11-21T14:09:17;8.80;99.90
8896;DHT22;4484;48.928;10.066;2023-11-21T14:12:02;8.80;99.90
8896;DHT22;4484;48.928;10.066;2023-11-21T14:14:33;8.80;99.90
8896;DHT22;4484;48.928;10.066;2023-11-21T14:17:00;8.80;99.90
8896;DHT22;4484;48.928;10.066;2023-11-21T14:19:33;8.70;99.90
8896;DHT22;4484;48.928;10.066;2023-11-21T14:22:01;8.60;99.90
8896;DHT22;4484;48.928;10.066;2023-11-21T14:24:27;8.60;99.90
8896;DHT22;4484;48.928;10.066;2023-11-21T14:26:56;8.60;99.90
8896;DHT22;4484;48.928;10.066;2023-11-21T14:29:23;8.50;99.90
8896;DHT22;4484;48.928;10.066;2023-11-21T14:31:51;8.50;99.90
8896;DHT22;4484;48.928;10.066;2023-11-21T14:34:18;8.40;99.90
8896;DHT22;4484;48.928;10.066;2023-11-21T14:36:49;8.40;99.90
8896;DHT22;4484;48.928;10.066;2023-11-21T14:39:16;8.40;99.90
8896;DHT22;4484;48.928;10.066;2023-11-21T14:41:57;8.40;99.90
8896;DHT22;4484;48.928;10.066;2023-11-21T14:44:26;8.30;99.90
8896;DHT22;4484;48.928;10.066;2023-11-21T14:46:55;8.30;99.90
8896;DHT22;4484;48.928;10.066;2023-11-21T14:49:25;8.20;99.90
8896;DHT22;4484;48.928;10.066;2023-11-21T14:51:55;8.20;99.90
8896;DHT22;4484;48.928;10.066;2023-11-21T14:54:28;8.10;99.90
8896;DHT22;4484;48.928;10.066;2023-11-21T14:57:09;8.00;99.90
8896;DHT22;4484;48.928;10.066;2023-11-21T14:59:47;7.90;99.90
8896;DHT22;4484;48.928;10.066;2023-11-21T15:02:18;7.80;99.90
8896;DHT22;4484;48.928;10.066;2023-11-21T15:04:49;7.70;99.90
8896;DHT22;4484;48.928;10.066;2023-11-21T15:07:19;7.60;99.90
8896;DHT22;4484;48.928;10.066;2023-11-21T15:09:46;7.60;99.90
8896;DHT22;4484;48.928;10.066;2023-11-21T15:12:13;7.50;99.90
8896;DHT22;4484;48.928;10.066;2023-11-21T15:14:50;7.50;99.90
8896;DHT22;4484;48.928;10.066;2023-11-21T15:17:20;7.50;99.90
8896;DHT22;4484;48.928;10.066;2023-11-21T15:19:53;7.40;99.90
8896;DHT22;4484;48.928;10.066;2023-11-21T15:22:21;7.40;99.90
8896;DHT22;4484;48.928;10.066;2023-11-21T15:24:48;7.30;99.90
8896;DHT22;4484;48.928;10.066;2023-11-21T15:27:17;7.30;99.90
8896;DHT22;4484;48.928;10.066;2023-11-21T15:29:44;7.20;99.90
8896;DHT22;4484;48.928;10.066;2023-11-21T15:32:12;7.20;99.90
8896;DHT22;4484;48.928;10.066;2023-11-21T15:34:39;7.10;99.90
8896;DHT22;4484;48.928;10.066;2023-11-21T15:37:07;7.10;99.90
8896;DHT22;4484;48.928;10.066;2023-11-21T15:39:39;7.10;99.90
8896;DHT22;4484;48.928;10.066;2023-11-21T15:42:06;7.10;99.90
8896;DHT22;4484;48.928;10.066;2023-11-21T15:44:36;7.00;99.90
8896;DHT22;4484;48.928;10.066;2023-11-21T15:47:04;7.00;99.90
8896;DHT22;4484;48.928;10.066;2023-11-21T15:49:35;7.00;99.90
8896;DHT22;4484;48.928;10.066;2023-11-21T15:52:06;7.00;99.90
8896;DHT22;4484;48.928;10.066;2023-11-21T15:54:37;7.00;99.90
8896;DHT22;4484;48.928;10.066;2023-11-21T15:57:04;7.00;99.90
8896;DHT22;4484;48.928;10.066;2023-11-21T15:59:33;6.90;99.90
8896;DHT22;4484;48.928;10.066;2023-11-21T16:02:01;6.90;99.90
8896;DHT22;4484;48.928;10.066;2023-11-21T16:04:32;6.90;99.90
8896;DHT22;4484;48.928;10.066;2023-11-21T16:06:58;6.90;99.90
8896;DHT22;4484;48.928;10.066;2023-11-21T16:09:26;6.90;99.90
8896;DHT22;4484;48.928;10.066;2023-11-21T16:12:02;6.80;99.90
8896;DHT22;4484;48.928;10.066;2023-11-21T16:14:31;6.80;99.90
8896;DHT22;4484;48.928;10.066;2023-11-21T16:17:15;6.80;99.90
8896;DHT22;4484;48.928;10.066;2023-11-21T16:19:44;6.80;99.90
8896;DHT22;4484;48.928;10.066;2023-11-21T16:22:11;6.80;99.90
8896;DHT22;4484;48.928;10.066;2023-11-21T16:24:38;6.80;99.90
8896;DHT22;4484;48.928;10.066;2023-11-21T16:27:05;6.80;99.90
8896;DHT22;4484;48.928;10.066;2023-11-21T16:29:37;6.80;99.90